Time;durP1;ratioP1;P1;durP2;ratioP2;P2;SDS_P1;SDS_P2;PMS_P1;PMS_P2;Temp;Humidity;BMP_temperature;BMP_pressure;BME280_temperature;BME280_humidity;BME280_pressure;Samples;Min_cycle;Max_cycle;Signal;HPM_P1;HPM_P2
2021/12/28 00:02:22;;;;;;;8.15;3.97;;;;;;;7.37;92.60;97984.50;5068260;28;20118;-85
2021/12/28 00:04:47;;;;;;;8.48;4.22;;;;;;;7.30;92.21;97979.44;5068784;28;21138;-84
2021/12/28 00:07:12;;;;;;;8.25;3.53;;;;;;;7.28;92.51;97975.41;5055508;28;20865;-85
2021/12/28 00:09:41;;;;;;;9.05;3.03;;;;;;;7.30;92.77;97974.00;5067320;28;20513;-85
2021/12/28 00:12:06;;;;;;;8.32;4.47;;;;;;;7.28;92.66;97968.06;5067198;28;20040;-85
2021/12/28 00:17:59;;;;;;;8.68;4.65;;;;;;;7.24;92.71;97962.41;5070936;28;20134;-85
2021/12/28 00:20:38;;;;;;;9.32;4.32;;;;;;;7.24;92.70;97967.84;5068612;28;20047;-84
2021/12/28 00:23:17;;;;;;;16.75;5.25;;;;;;;7.27;92.54;97971.06;5067094;28;20021;-85
2021/12/28 00:25:43;;;;;;;6.85;3.33;;;;;;;7.26;92.65;97967.53;5066552;28;20122;-86
2021/12/28 00:28:09;;;;;;;6.30;3.17;;;;;;;7.32;92.42;97962.91;5066466;28;20082;-86
2021/12/28 00:30:35;;;;;;;13.52;3.97;;;;;;;7.34;91.97;97958.78;5060483;28;20037;-86
2021/12/28 00:33:00;;;;;;;7.22;3.20;;;;;;;7.33;92.16;97959.88;5059760;28;20078;-85
2021/12/28 00:35:29;;;;;;;7.78;4.55;;;;;;;7.38;92.16;97947.38;5057284;28;20494;-84
2021/12/28 00:37:54;;;;;;;9.68;4.35;;;;;;;7.30;91.96;97955.03;5059278;28;20028;-84
2021/12/28 00:40:21;;;;;;;9.13;3.42;;;;;;;7.30;92.36;97952.31;5058001;28;20024;-86
2021/12/28 00:42:47;;;;;;;6.85;3.15;;;;;;;7.40;91.85;97945.19;5057362;28;20056;-83
2021/12/28 00:45:16;;;;;;;6.60;3.47;;;;;;;7.34;91.88;97937.09;5060111;28;20101;-85
2021/12/28 00:47:42;;;;;;;6.93;3.38;;;;;;;7.40;91.53;97928.91;5058461;28;20050;-85
2021/12/28 00:50:09;;;;;;;6.15;2.67;;;;;;;7.39;91.70;97935.41;5063340;28;20040;-85
2021/12/28 00:52:34;;;;;;;8.65;4.30;;;;;;;7.35;91.65;97927.88;5061615;28;20647;-85
2021/12/28 00:55:02;;;;;;;5.43;2.58;;;;;;;7.32;91.39;97925.72;5063110;28;20070;-85
2021/12/28 00:57:27;;;;;;;8.27;3.10;;;;;;;7.38;90.27;97912.94;5062487;28;20169;-85
2021/12/28 01:02:37;;;;;;;12.32;4.70;;;;;;;7.24;91.23;97904.69;5059639;28;20139;-86
2021/12/28 01:05:04;;;;;;;8.90;3.58;;;;;;;7.28;91.33;97905.72;5059935;28;20028;-86
2021/12/28 01:07:29;;;;;;;8.07;3.20;;;;;;;7.21;91.24;97902.56;5062051;28;20032;-84
2021/12/28 01:09:55;;;;;;;9.95;4.70;;;;;;;7.20;91.38;97903.66;5062053;28;20051;-86
2021/12/28 01:12:20;;;;;;;7.03;3.13;;;;;;;7.04;91.58;97898.38;5062227;28;20592;-86
2021/12/28 01:14:45;;;;;;;12.43;4.38;;;;;;;7.02;92.20;97897.06;5061948;28;20024;-85
2021/12/28 01:17:24;;;;;;;6.97;3.58;;;;;;;7.02;91.93;97892.44;5062530;28;20040;-85
2021/12/28 01:19:49;;;;;;;8.20;3.53;;;;;;;7.09;91.66;97884.78;5062691;28;20116;-84
2021/12/28 01:22:14;;;;;;;7.07;3.90;;;;;;;7.08;91.73;97901.31;5062851;28;20163;-86
2021/12/28 01:24:43;;;;;;;8.30;2.90;;;;;;;7.07;91.38;97895.13;5062835;28;20013;-86
2021/12/28 01:27:08;;;;;;;9.02;3.10;;;;;;;7.09;91.41;97884.78;5060226;28;20094;-86
2021/12/28 01:29:34;;;;;;;7.18;2.78;;;;;;;7.10;91.65;97885.59;5061998;28;20480;-85
2021/12/28 01:32:00;;;;;;;7.47;3.20;;;;;;;7.11;91.11;97895.34;5062501;28;20025;-85
2021/12/28 01:34:26;;;;;;;8.93;4.07;;;;;;;7.10;90.79;97894.53;5061142;28;20040;-86
2021/12/28 01:36:51;;;;;;;8.13;2.85;;;;;;;7.13;90.77;97901.28;5061843;28;20031;-85
2021/12/28 01:39:17;;;;;;;7.00;2.85;;;;;;;7.08;90.82;97902.13;5043236;28;20082;-86
2021/12/28 01:41:42;;;;;;;6.55;3.55;;;;;;;7.11;90.64;97896.16;5061029;28;20029;-85
2021/12/28 01:44:11;;;;;;;12.02;3.92;;;;;;;7.19;90.60;97896.59;5043822;28;20032;-85
2021/12/28 01:46:38;;;;;;;10.25;2.83;;;;;;;7.15;90.47;97890.16;5062696;28;20032;-86
2021/12/28 01:49:06;;;;;;;7.60;3.42;;;;;;;7.11;90.47;97885.31;5061306;28;20017;-86
2021/12/28 01:51:32;;;;;;;9.73;2.92;;;;;;;7.00;90.69;97890.03;5061119;28;20028;-86
2021/12/28 01:53:59;;;;;;;17.70;4.50;;;;;;;7.06;90.33;97890.00;5042830;28;20016;-84
2021/12/28 01:56:41;;;;;;;13.07;3.42;;;;;;;7.06;90.50;97888.06;5060609;28;20680;-84
2021/12/28 01:59:09;;;;;;;10.60;3.25;;;;;;;7.12;90.08;97897.75;5062073;28;20047;-85
2021/12/28 02:01:35;;;;;;;10.23;3.30;;;;;;;7.06;90.55;97892.69;5043122;28;20028;-85
2021/12/28 02:04:01;;;;;;;13.18;3.15;;;;;;;7.09;90.58;97890.22;5062306;28;20029;-85
2021/12/28 02:06:27;;;;;;;9.48;3.45;;;;;;;7.05;90.35;97885.66;5060345;28;20033;-84
2021/12/28 02:08:53;;;;;;;9.02;2.75;;;;;;;7.16;90.08;97880.94;5042057;28;20036;-83
2021/12/28 02:11:19;;;;;;;9.85;3.47;;;;;;;7.01;90.87;97869.16;5061391;28;20025;-84
2021/12/28 02:13:45;;;;;;;24.60;4.05;;;;;;;7.05;90.80;97872.91;5060569;28;20016;-86
2021/12/28 02:16:10;;;;;;;11.85;3.00;;;;;;;7.10;90.56;97880.97;5062445;28;20112;-86
2021/12/28 02:18:49;;;;;;;11.27;2.78;;;;;;;7.19;90.25;97870.31;5059574;28;20027;-86
2021/12/28 02:21:15;;;;;;;8.18;2.97;;;;;;;7.26;89.56;97872.66;5061335;28;20435;-85
2021/12/28 02:23:40;;;;;;;12.05;2.80;;;;;;;7.18;89.73;97868.69;5060294;28;20028;-85
2021/12/28 02:26:06;;;;;;;14.45;3.35;;;;;;;7.23;89.94;97862.41;5059779;28;20140;-85
2021/12/28 02:28:32;;;;;;;12.32;4.82;;;;;;;7.25;89.57;97868.34;5061752;28;20021;-84
2021/12/28 02:30:58;;;;;;;12.15;4.10;;;;;;;7.26;89.72;97864.53;5042836;28;20448;-85
2021/12/28 02:33:25;;;;;;;9.98;3.95;;;;;;;7.31;89.59;97860.97;5061514;28;20049;-84
2021/12/28 02:35:53;;;;;;;13.02;3.22;;;;;;;7.26;89.64;97869.16;5060823;28;20032;-85
2021/12/28 02:38:19;;;;;;;7.97;2.70;;;;;;;7.27;89.43;97868.88;5042120;28;20073;-85
2021/12/28 02:40:44;;;;;;;13.40;3.28;;;;;;;7.19;89.68;97862.19;5060708;28;20055;-86
2021/12/28 02:43:12;;;;;;;8.77;4.07;;;;;;;7.27;89.85;97860.75;5061598;28;20111;-84
2021/12/28 02:45:48;;;;;;;12.80;5.05;;;;;;;7.25;89.42;97852.09;5061610;28;20029;-85
2021/12/28 02:48:13;;;;;;;11.20;3.85;;;;;;;7.29;89.23;97853.13;5059602;28;20475;-85
2021/12/28 02:50:48;;;;;;;12.13;3.58;;;;;;;7.27;89.44;97846.38;5060608;28;20124;-86
2021/12/28 02:53:15;;;;;;;24.08;6.15;;;;;;;7.26;89.63;97844.78;5058092;28;20032;-86
2021/12/28 02:55:40;;;;;;;14.23;4.10;;;;;;;7.25;89.58;97843.94;5060811;28;20452;-86
2021/12/28 02:58:09;;;;;;;14.05;5.25;;;;;;;7.23;89.71;97840.72;5059378;28;20147;-86
2021/12/28 03:00:47;;;;;;;9.80;3.80;;;;;;;7.27;89.73;97832.81;5060111;28;20452;-84
2021/12/28 03:03:16;;;;;;;9.73;3.13;;;;;;;7.27;89.38;97843.66;5061187;28;20122;-86
2021/12/28 03:08:29;;;;;;;17.23;4.07;;;;;;;7.29;89.37;97823.31;5061283;28;20067;-86
2021/12/28 03:10:55;;;;;;;17.45;5.53;;;;;;;7.32;89.27;97820.00;5058196;28;20028;-86
2021/12/28 03:13:24;;;;;;;15.05;3.90;;;;;;;7.40;89.17;97826.69;5059490;28;20024;-85
2021/12/28 03:15:50;;;;;;;13.23;4.00;;;;;;;7.43;88.65;97825.28;5059877;28;20024;-86
2021/12/28 03:18:16;;;;;;;19.55;3.88;;;;;;;7.45;88.64;97823.09;5058731;28;20060;-85
2021/12/28 03:20:42;;;;;;;13.63;4.25;;;;;;;7.48;88.89;97822.53;5043360;28;20070;-85
2021/12/28 03:23:07;;;;;;;14.52;3.25;;;;;;;7.50;88.68;97814.91;5040660;28;20029;-86
2021/12/28 03:25:33;;;;;;;15.00;3.80;;;;;;;7.59;88.45;97807.72;5060138;28;20058;-86
2021/12/28 03:28:02;;;;;;;6.95;3.10;;;;;;;7.58;88.13;97811.53;5059037;28;20066;-85
2021/12/28 03:30:28;;;;;;;23.45;4.28;;;;;;;7.64;87.76;97808.75;5060350;28;20081;-84
2021/12/28 03:32:54;;;;;;;22.60;3.63;;;;;;;7.55;88.55;97812.13;5060839;28;20036;-85
2021/12/28 03:35:20;;;;;;;18.13;4.75;;;;;;;7.59;88.55;97791.44;5060003;28;20098;-85
2021/12/28 03:37:45;;;;;;;16.35;5.20;;;;;;;7.55;88.80;97793.13;5059799;28;20028;-85
2021/12/28 03:40:14;;;;;;;12.35;4.97;;;;;;;7.64;88.24;97798.72;5057852;28;20031;-86
2021/12/28 03:42:41;;;;;;;21.80;5.35;;;;;;;7.64;88.62;97800.59;5060545;28;20630;-84
2021/12/28 03:45:07;;;;;;;13.32;3.05;;;;;;;7.67;88.83;97797.28;5058085;28;20083;-85
2021/12/28 03:47:33;;;;;;;19.08;5.18;;;;;;;7.69;88.52;97786.97;5059463;28;20023;-86
2021/12/28 03:49:58;;;;;;;11.57;3.38;;;;;;;7.68;88.17;97788.06;5061355;28;20032;-85
2021/12/28 03:52:23;;;;;;;15.82;4.03;;;;;;;7.65;88.75;97788.66;5058980;28;20759;-85
2021/12/28 03:54:49;;;;;;;13.68;4.05;;;;;;;7.69;88.62;97778.81;5042386;28;20027;-85
2021/12/28 03:57:14;;;;;;;17.35;4.40;;;;;;;7.72;88.21;97783.69;5057949;28;20024;-86
2021/12/28 03:59:40;;;;;;;16.00;4.00;;;;;;;7.67;88.91;97771.00;5059898;28;20047;-85
2021/12/28 04:02:05;;;;;;;10.50;2.95;;;;;;;7.67;88.69;97770.16;5059734;28;20032;-86
2021/12/28 04:04:31;;;;;;;16.13;3.15;;;;;;;7.79;88.15;97764.31;5060236;28;20016;-85
2021/12/28 04:06:56;;;;;;;13.45;3.30;;;;;;;7.79;87.98;97761.63;5057912;28;20024;-86
2021/12/28 04:09:45;;;;;;;13.63;3.67;;;;;;;7.79;88.64;97761.63;5058202;28;20064;-84
2021/12/28 04:12:07;;;;;;;16.05;4.15;;;;;;;7.80;88.02;97761.31;5060513;28;20024;-85
2021/12/28 04:14:33;;;;;;;13.93;4.60;;;;;;;7.85;88.12;97765.03;5059848;28;20067;-85
2021/12/28 04:16:58;;;;;;;21.27;5.60;;;;;;;7.86;88.08;97761.22;5058057;28;20068;-86
2021/12/28 04:19:23;;;;;;;9.15;2.28;;;;;;;7.93;87.87;97770.59;5059212;28;20450;-84
2021/12/28 04:21:48;;;;;;;13.60;3.80;;;;;;;7.94;87.88;97774.09;5059260;28;20028;-86
2021/12/28 04:24:14;;;;;;;13.65;4.88;;;;;;;7.89;87.99;97764.13;5042389;28;20815;-85
2021/12/28 04:26:39;;;;;;;16.15;4.00;;;;;;;7.86;87.81;97767.44;5046139;28;20107;-85
2021/12/28 04:29:04;;;;;;;12.18;3.60;;;;;;;7.85;88.06;97767.75;5063613;28;20995;-85
2021/12/28 04:31:30;;;;;;;19.50;4.15;;;;;;;7.81;88.01;97760.19;5061305;28;20054;-86
2021/12/28 04:33:55;;;;;;;15.73;4.05;;;;;;;7.83;88.34;97751.78;5039013;28;20042;-86
2021/12/28 04:36:20;;;;;;;19.55;4.07;;;;;;;7.75;88.81;97745.09;5020466;28;20029;-85
2021/12/28 04:39:00;;;;;;;12.18;3.63;;;;;;;7.82;88.36;97745.53;5024738;28;20029;-84
2021/12/28 04:41:27;;;;;;;14.27;3.63;;;;;;;7.93;88.44;97742.66;5023455;28;20049;-85
2021/12/28 04:43:52;;;;;;;22.25;4.15;;;;;;;7.99;88.17;97743.38;5022238;28;20021;-85
2021/12/28 04:46:17;;;;;;;19.00;6.90;;;;;;;7.93;88.24;97735.31;5021414;28;20377;-86
2021/12/28 04:48:43;;;;;;;10.63;2.50;;;;;;;8.03;87.62;97741.69;5022212;28;20400;-86
2021/12/28 04:51:08;;;;;;;9.57;3.30;;;;;;;7.93;88.43;97735.31;5023777;28;20041;-85
2021/12/28 04:53:34;;;;;;;8.05;2.35;;;;;;;7.83;88.73;97736.28;5022872;28;20033;-84
2021/12/28 04:56:00;;;;;;;9.23;2.80;;;;;;;7.73;89.36;97731.03;5023984;28;20040;-85
2021/12/28 04:58:28;;;;;;;15.75;3.55;;;;;;;7.77;89.50;97726.63;5020000;28;20117;-85
2021/12/28 05:00:54;;;;;;;12.02;4.40;;;;;;;7.62;90.04;97733.09;5021056;28;20637;-86
2021/12/28 05:03:21;;;;;;;12.05;5.10;;;;;;;7.67;89.68;97732.19;5022221;28;20026;-86
2021/12/28 05:05:50;;;;;;;10.23;2.63;;;;;;;7.69;89.78;97730.00;5021271;28;20025;-86
2021/12/28 05:08:17;;;;;;;10.65;3.45;;;;;;;7.64;89.85;97730.91;5022929;28;20030;-86
2021/12/28 05:13:27;;;;;;;14.15;2.70;;;;;;;7.58;90.30;97723.94;5022079;28;20132;-86
2021/12/28 05:15:53;;;;;;;13.60;3.65;;;;;;;7.55;90.21;97724.53;5021764;28;20391;-86
2021/12/28 05:18:18;;;;;;;9.65;3.10;;;;;;;7.64;90.03;97719.25;5022616;28;20030;-86
2021/12/28 05:20:44;;;;;;;19.13;4.05;;;;;;;7.63;89.79;97718.44;5022393;28;20022;-86
2021/12/28 05:23:13;;;;;;;14.02;3.42;;;;;;;7.67;90.08;97724.88;5020344;28;20029;-84
2021/12/28 05:25:38;;;;;;;18.65;4.90;;;;;;;7.58;90.29;97722.06;5022629;28;20138;-85
2021/12/28 05:28:05;;;;;;;14.63;3.90;;;;;;;7.50;90.67;97716.47;5019092;28;20160;-86
2021/12/28 05:30:31;;;;;;;19.15;3.17;;;;;;;7.56;90.64;97715.31;5023033;28;20025;-86
2021/12/28 05:32:57;;;;;;;13.18;3.40;;;;;;;7.52;90.77;97715.09;5021497;28;20026;-85
2021/12/28 05:35:23;;;;;;;15.75;4.82;;;;;;;7.58;90.94;97705.78;5060934;28;20403;-86
2021/12/28 05:37:49;;;;;;;20.80;4.43;;;;;;;7.59;90.51;97706.56;5061717;28;20144;-86
2021/12/28 05:40:15;;;;;;;13.30;3.92;;;;;;;7.61;90.86;97700.88;5042621;28;20531;-86
2021/12/28 05:42:40;;;;;;;13.65;4.63;;;;;;;7.61;90.54;97707.06;5048086;28;20046;-84
2021/12/28 05:45:06;;;;;;;8.52;3.92;;;;;;;7.63;90.41;97706.81;5067993;28;20760;-85
2021/12/28 05:47:32;;;;;;;13.20;3.97;;;;;;;7.53;90.99;97703.13;5073274;28;20535;-86
2021/12/28 05:49:58;;;;;;;11.07;3.45;;;;;;;7.57;90.70;97701.44;5070282;28;20112;-85
2021/12/28 05:52:23;;;;;;;15.05;3.80;;;;;;;7.54;91.02;97695.81;5069965;28;20040;-86
2021/12/28 05:54:49;;;;;;;18.65;5.95;;;;;;;7.64;90.57;97694.84;5070212;28;20079;-85
2021/12/28 05:57:14;;;;;;;12.45;4.20;;;;;;;7.57;90.80;97682.47;5070006;28;20013;-84
2021/12/28 05:59:40;;;;;;;6.55;3.05;;;;;;;7.58;90.60;97681.38;5069671;28;20023;-85
2021/12/28 06:02:06;;;;;;;12.35;4.68;;;;;;;7.61;90.63;97687.31;5070375;28;20123;-84
2021/12/28 06:04:31;;;;;;;12.65;4.20;;;;;;;7.69;90.45;97679.28;5071858;28;20107;-85
2021/12/28 06:06:57;;;;;;;13.40;3.67;;;;;;;7.68;90.42;97682.28;5071581;28;20073;-85
2021/12/28 06:09:22;;;;;;;17.25;5.43;;;;;;;7.69;90.41;97681.19;5071592;28;20032;-85
2021/12/28 06:11:48;;;;;;;13.73;3.67;;;;;;;7.68;90.55;97668.72;5067635;28;20026;-85
2021/12/28 06:14:14;;;;;;;8.68;3.42;;;;;;;7.66;90.48;97666.31;5066611;28;20009;-86
2021/12/28 06:16:39;;;;;;;16.05;4.55;;;;;;;7.68;90.19;97672.25;5070673;28;20115;-85
2021/12/28 06:19:06;;;;;;;6.90;2.13;;;;;;;7.71;90.22;97659.97;5068434;28;20040;-85
2021/12/28 06:21:32;;;;;;;8.13;3.95;;;;;;;7.69;90.38;97671.13;5072419;28;20017;-86
2021/12/28 06:24:01;;;;;;;10.50;3.60;;;;;;;7.64;90.63;97673.94;5068243;28;20070;-86
2021/12/28 06:26:28;;;;;;;7.28;3.13;;;;;;;7.70;90.43;97667.34;5069585;28;20412;-85
2021/12/28 06:28:53;;;;;;;5.28;2.67;;;;;;;7.67;90.63;97667.09;5068511;28;20044;-84
2021/12/28 06:31:19;;;;;;;9.70;3.67;;;;;;;7.75;90.23;97674.56;5069134;28;20101;-84
2021/12/28 06:33:45;;;;;;;6.20;2.55;;;;;;;7.78;90.06;97667.75;5066919;28;20356;-85
2021/12/28 06:36:10;;;;;;;10.07;2.92;;;;;;;7.76;90.25;97668.06;5070897;28;20340;-85
2021/12/28 06:38:35;;;;;;;15.68;5.00;;;;;;;7.75;90.08;97674.56;5070753;28;20074;-85
2021/12/28 06:41:01;;;;;;;6.90;3.58;;;;;;;7.80;89.97;97677.22;5067685;28;20100;-86
2021/12/28 06:43:27;;;;;;;6.93;2.70;;;;;;;7.81;90.03;97678.81;5067618;28;20035;-85
2021/12/28 06:45:54;;;;;;;9.45;3.60;;;;;;;7.81;90.03;97678.03;5066432;28;20643;-86
2021/12/28 06:48:19;;;;;;;7.70;2.75;;;;;;;7.75;90.08;97684.63;5068104;28;20024;-86
2021/12/28 06:50:45;;;;;;;9.93;2.70;;;;;;;7.76;89.86;97680.81;5063544;28;20028;-86
2021/12/28 06:53:10;;;;;;;4.72;2.15;;;;;;;7.70;90.69;97680.09;5068442;28;20028;-85
2021/12/28 06:55:36;;;;;;;8.15;2.20;;;;;;;7.72;90.51;97683.31;5068801;28;20029;-85
2021/12/28 06:58:01;;;;;;;10.00;3.55;;;;;;;7.70;90.47;97677.38;5067253;28;20491;-86
2021/12/28 07:00:27;;;;;;;7.05;3.30;;;;;;;7.69;90.89;97675.75;5065058;28;20092;-86
2021/12/28 07:02:52;;;;;;;7.00;2.53;;;;;;;7.65;90.66;97674.72;5041029;28;20025;-85
2021/12/28 07:05:17;;;;;;;8.57;2.40;;;;;;;7.69;90.66;97670.31;5060595;28;20387;-86
2021/12/28 07:07:43;;;;;;;12.30;3.45;;;;;;;7.64;90.74;97651.44;5058206;28;20862;-85
2021/12/28 07:10:09;;;;;;;9.90;2.58;;;;;;;7.75;90.39;97652.09;5060273;28;20025;-85
2021/12/28 07:12:35;;;;;;;7.55;2.13;;;;;;;7.57;91.10;97652.63;5059934;28;20024;-86
2021/12/28 07:15:00;;;;;;;8.60;2.97;;;;;;;7.68;90.68;97655.16;5058691;28;20020;-86
2021/12/28 07:17:28;;;;;;;20.05;3.60;;;;;;;7.61;90.62;97652.03;5060315;28;20545;-85
2021/12/28 07:19:55;;;;;;;8.27;2.75;;;;;;;7.64;90.34;97657.69;5058752;28;20088;-86
2021/12/28 07:22:20;;;;;;;7.18;3.90;;;;;;;7.65;90.78;97658.47;5060725;28;20029;-86
2021/12/28 07:24:46;;;;;;;5.50;2.63;;;;;;;7.64;90.68;97662.28;5058263;28;20030;-86
2021/12/28 07:27:11;;;;;;;9.07;2.60;;;;;;;7.71;90.66;97660.78;5042081;28;20361;-85
2021/12/28 07:29:37;;;;;;;7.68;2.88;;;;;;;7.67;90.34;97656.25;5059317;28;20036;-85
2021/12/28 07:32:08;;;;;;;15.32;2.72;;;;;;;7.66;90.37;97654.66;5060150;28;20035;-86
2021/12/28 07:34:46;;;;;;;6.13;2.35;;;;;;;7.69;90.29;97660.28;5058765;28;20048;-85
2021/12/28 07:37:12;;;;;;;8.73;2.75;;;;;;;7.72;90.18;97653.47;5057199;28;20040;-86
2021/12/28 07:39:37;;;;;;;6.22;2.08;;;;;;;7.76;89.67;97667.25;5064408;28;20017;-85
2021/12/28 07:42:03;;;;;;;7.88;2.13;;;;;;;7.77;89.92;97656.09;5045292;28;20043;-83
2021/12/28 07:44:28;;;;;;;5.22;2.13;;;;;;;7.67;90.00;97656.25;5067117;28;20016;-83
2021/12/28 07:46:54;;;;;;;6.75;2.30;;;;;;;7.57;90.75;97655.34;5063863;28;20436;-85
2021/12/28 07:49:19;;;;;;;9.95;1.80;;;;;;;7.69;90.41;97654.06;5062878;28;20039;-86
2021/12/28 07:51:46;;;;;;;11.02;1.88;;;;;;;7.67;90.17;97653.53;5065139;28;20056;-86
2021/12/28 07:54:11;;;;;;;5.32;2.25;;;;;;;7.66;89.93;97651.94;5045696;28;21017;-84
2021/12/28 07:56:37;;;;;;;4.65;1.65;;;;;;;7.59;90.48;97652.31;5067740;28;20035;-86
2021/12/28 07:59:03;;;;;;;7.43;2.03;;;;;;;7.67;90.34;97643.50;5057479;28;20353;-86
2021/12/28 08:01:30;;;;;;;5.90;2.17;;;;;;;7.58;90.57;97651.53;5059840;28;20028;-86
2021/12/28 08:03:55;;;;;;;6.45;1.85;;;;;;;7.61;90.80;97652.84;5058211;28;20936;-86
2021/12/28 08:06:20;;;;;;;7.32;1.70;;;;;;;7.61;90.55;97654.75;5058134;28;20047;-83
2021/12/28 08:08:46;;;;;;;6.43;2.13;;;;;;;7.64;90.44;97641.41;5063031;28;20028;-85
2021/12/28 08:11:11;;;;;;;10.23;2.78;;;;;;;7.63;90.31;97636.28;5067882;28;20020;-85
2021/12/28 08:13:37;;;;;;;23.75;3.58;;;;;;;7.68;90.44;97628.03;5068257;28;21141;-86
2021/12/28 08:16:02;;;;;;;8.68;2.20;;;;;;;7.64;90.53;97632.47;5057806;28;20177;-85
2021/12/28 08:18:27;;;;;;;5.95;2.08;;;;;;;7.63;90.72;97634.34;5059421;28;20711;-86
2021/12/28 08:20:53;;;;;;;3.47;1.20;;;;;;;7.69;90.64;97635.88;5058344;28;20032;-85
2021/12/28 08:23:18;;;;;;;10.40;2.58;;;;;;;7.62;90.96;97632.75;5063110;28;20012;-86
2021/12/28 08:25:43;;;;;;;7.13;1.98;;;;;;;7.71;91.56;97639.09;5054493;28;20285;-95
2021/12/28 08:28:09;;;;;;;7.40;2.22;;;;;;;7.85;90.89;97643.75;5071423;28;20066;-86
2021/12/28 08:30:36;;;;;;;3.92;1.70;;;;;;;7.74;89.66;97648.56;5066832;28;20774;-87
2021/12/28 08:33:03;;;;;;;17.35;2.20;;;;;;;7.49;91.83;97656.00;5067300;28;20095;-88
2021/12/28 08:35:29;;;;;;;5.10;1.92;;;;;;;7.46;92.17;97651.19;5069369;28;20028;-88
2021/12/28 08:37:54;;;;;;;11.68;2.03;;;;;;;7.49;92.21;97661.44;5059093;28;20489;-88
2021/12/28 08:40:20;;;;;;;4.03;1.83;;;;;;;7.61;92.03;97668.31;5058571;28;20017;-87
2021/12/28 08:42:46;;;;;;;2.75;1.45;;;;;;;7.70;91.23;97671.94;5039026;28;20219;-87
2021/12/28 08:48:33;;;;;;;4.82;2.22;;;;;;;7.81;91.20;97678.03;5058976;28;20055;-87
2021/12/28 08:50:58;;;;;;;4.27;1.80;;;;;;;7.84;90.80;97682.84;5041107;28;20029;-87
2021/12/28 08:53:24;;;;;;;5.65;2.42;;;;;;;7.88;90.88;97677.63;5059446;28;20340;-86
2021/12/28 08:55:49;;;;;;;2.65;1.02;;;;;;;7.96;90.73;97668.78;5056877;28;20025;-89
2021/12/28 08:58:15;;;;;;;4.30;1.20;;;;;;;8.12;89.92;97672.03;5059290;28;20028;-88
2021/12/28 09:00:41;;;;;;;2.38;0.95;;;;;;;8.22;89.32;97664.78;5059395;28;20491;-88
2021/12/28 09:03:08;;;;;;;2.83;1.02;;;;;;;8.15;89.14;97666.03;5058779;28;20024;-88
2021/12/28 09:05:37;;;;;;;2.25;0.90;;;;;;;8.05;89.78;97664.28;5040391;28;20013;-88
2021/12/28 09:08:06;;;;;;;4.88;1.35;;;;;;;8.04;90.18;97668.09;5057553;28;20036;-87
2021/12/28 09:10:32;;;;;;;5.28;1.50;;;;;;;8.06;90.45;97652.31;5060795;28;20032;-88
2021/12/28 09:12:57;;;;;;;3.40;1.50;;;;;;;8.12;90.52;97644.88;5060530;28;20035;-88
2021/12/28 09:15:23;;;;;;;5.85;2.00;;;;;;;8.16;90.23;97642.38;5063745;28;20025;-87
2021/12/28 09:17:48;;;;;;;2.60;0.82;;;;;;;8.13;90.36;97641.09;5060194;28;20024;-87
2021/12/28 09:20:19;;;;;;;5.35;1.27;;;;;;;8.19;90.13;97628.22;5062036;28;20025;-87
2021/12/28 09:22:45;;;;;;;3.85;1.50;;;;;;;8.20;89.94;97624.38;5062229;28;20437;-87
2021/12/28 09:25:11;;;;;;;2.00;0.80;;;;;;;8.21;90.57;97642.28;5041251;28;20040;-87
2021/12/28 09:27:38;;;;;;;2.10;1.00;;;;;;;8.28;90.04;97650.81;5045005;28;20108;-86
2021/12/28 09:30:05;;;;;;;3.22;1.15;;;;;;;8.37;89.09;97656.38;5060519;28;20064;-87
2021/12/28 09:32:30;;;;;;;4.85;1.00;;;;;;;8.21;89.72;97647.72;5044863;28;20155;-87
2021/12/28 09:34:56;;;;;;;2.92;0.90;;;;;;;8.16;90.22;97648.59;5061271;28;20066;-85
2021/12/28 09:37:21;;;;;;;2.42;1.23;;;;;;;8.37;89.67;97644.69;5062523;28;20122;-87
2021/12/28 09:39:47;;;;;;;2.70;0.93;;;;;;;8.27;89.16;97643.81;5064110;28;20471;-88
2021/12/28 09:42:13;;;;;;;3.15;0.90;;;;;;;8.32;89.36;97647.53;5061705;28;20107;-88
2021/12/28 09:44:38;;;;;;;2.30;0.80;;;;;;;8.32;89.36;97642.09;5061771;28;20267;-88
2021/12/28 09:47:05;;;;;;;6.85;1.38;;;;;;;8.37;88.82;97639.25;5060627;28;20372;-87
2021/12/28 09:49:31;;;;;;;1.52;0.60;;;;;;;8.48;88.74;97640.66;5062183;28;20056;-87
2021/12/28 09:51:58;;;;;;;2.85;0.68;;;;;;;8.55;88.28;97644.88;5061078;28;20032;-88
2021/12/28 09:54:28;;;;;;;1.13;0.75;;;;;;;8.58;87.96;97636.97;5062650;28;20687;-88
2021/12/28 09:56:56;;;;;;;3.88;1.10;;;;;;;8.63;88.00;97631.44;5060876;28;20115;-88
2021/12/28 09:59:23;;;;;;;3.15;0.90;;;;;;;8.68;88.07;97635.16;5060999;28;20404;-88
2021/12/28 10:01:49;;;;;;;1.83;0.90;;;;;;;8.83;87.75;97625.84;5061890;28;20052;-88
2021/12/28 10:04:16;;;;;;;3.00;1.15;;;;;;;8.64;87.96;97643.88;5060706;28;20625;-87
2021/12/28 10:09:44;;;;;;;3.50;1.02;;;;;;;8.66;88.12;97627.31;5055519;28;20090;-87
2021/12/28 10:12:10;;;;;;;3.00;1.08;;;;;;;8.69;88.29;97631.31;5043929;28;20028;-88
2021/12/28 10:14:36;;;;;;;2.88;0.82;;;;;;;8.64;88.24;97624.09;5061290;28;20040;-88
2021/12/28 10:17:05;;;;;;;2.17;0.95;;;;;;;8.64;88.32;97619.44;5043448;28;20020;-87
2021/12/28 10:19:43;;;;;;;3.45;0.95;;;;;;;8.74;88.39;97620.34;5044229;28;20036;-88
2021/12/28 10:22:23;;;;;;;3.33;0.90;;;;;;;8.87;87.98;97613.25;5059043;28;20093;-88
2021/12/28 10:24:51;;;;;;;3.88;1.10;;;;;;;8.80;88.26;97613.69;5061378;28;20040;-87
2021/12/28 10:27:19;;;;;;;6.35;0.73;;;;;;;8.67;89.35;97604.44;5061069;28;20040;-88
2021/12/28 10:29:45;;;;;;;4.97;1.08;;;;;;;8.75;89.45;97598.31;5059386;28;20052;-88
2021/12/28 10:32:19;;;;;;;1.70;0.77;;;;;;;8.72;89.60;97590.78;5062325;28;20111;-87
2021/12/28 10:34:53;;;;;;;3.05;1.58;;;;;;;8.76;89.56;97593.69;5059859;28;20050;-88
2021/12/28 10:37:25;;;;;;;1.48;0.43;;;;;;;8.69;90.59;97588.66;5061740;28;20024;-88
2021/12/28 10:39:54;;;;;;;1.35;0.50;;;;;;;8.71;90.82;97585.63;5059296;28;20055;-86
2021/12/28 10:42:39;;;;;;;1.58;1.00;;;;;;;8.62;91.48;97589.06;5059949;28;20418;-87
2021/12/28 10:45:09;;;;;;;3.78;0.57;;;;;;;8.55;91.60;97579.69;5062400;28;20911;-87
2021/12/28 10:47:35;;;;;;;3.00;1.13;;;;;;;8.59;91.56;97578.81;5060122;28;20025;-88
2021/12/28 10:50:08;;;;;;;1.45;0.98;;;;;;;8.57;91.79;97569.34;5060312;28;20040;-87
2021/12/28 10:52:38;;;;;;;0.60;0.60;;;;;;;8.69;91.84;97563.38;5059924;28;20024;-88
2021/12/28 10:55:22;;;;;;;2.15;0.45;;;;;;;8.58;92.29;97568.25;5060073;28;20098;-87
2021/12/28 10:57:48;;;;;;;1.95;0.38;;;;;;;8.67;91.63;97561.00;5043399;28;20028;-88
2021/12/28 11:00:25;;;;;;;1.00;0.52;;;;;;;8.59;92.14;97553.56;5059067;28;20035;-88
2021/12/28 11:03:16;;;;;;;2.35;0.75;;;;;;;8.59;91.92;97545.41;5060872;28;20036;-87
2021/12/28 11:05:46;;;;;;;2.50;0.30;;;;;;;8.52;92.22;97552.03;5059064;28;20036;-87
2021/12/28 11:08:12;;;;;;;3.72;0.45;;;;;;;8.48;92.76;97537.47;5058931;28;20492;-88
2021/12/28 11:14:05;;;;;;;1.05;0.52;;;;;;;8.71;92.67;97525.84;5057374;28;20132;-86
2021/12/28 11:16:33;;;;;;;1.60;0.98;;;;;;;8.88;91.78;97527.91;5059531;28;20064;-87
2021/12/28 11:19:02;;;;;;;1.52;0.50;;;;;;;8.78;92.09;97530.88;5059741;28;20028;-87
2021/12/28 11:21:34;;;;;;;1.45;0.40;;;;;;;8.78;91.99;97517.28;5040085;28;20078;-87
2021/12/28 11:24:10;;;;;;;1.55;0.38;;;;;;;8.68;92.66;97521.84;5061368;28;20130;-87
2021/12/28 11:26:42;;;;;;;1.35;0.60;;;;;;;8.64;92.75;97507.28;5059288;28;20060;-87
2021/12/28 11:29:19;;;;;;;0.90;0.57;;;;;;;8.62;92.60;97515.72;5059990;28;20587;-88
2021/12/28 11:31:50;;;;;;;0.60;0.38;;;;;;;8.87;92.26;97493.69;5058438;28;20036;-87
2021/12/28 11:34:19;;;;;;;1.58;0.57;;;;;;;8.80;91.99;97502.28;5059668;28;20040;-87
2021/12/28 11:36:52;;;;;;;3.00;0.50;;;;;;;8.79;92.27;97495.25;5060245;28;20040;-87
2021/12/28 11:39:19;;;;;;;3.10;0.65;;;;;;;8.72;92.62;97498.41;5058982;28;20383;-87
2021/12/28 11:41:48;;;;;;;1.75;0.73;;;;;;;8.90;91.64;97497.72;5060362;28;20037;-87
2021/12/28 11:44:14;;;;;;;1.40;0.60;;;;;;;8.86;92.22;97497.53;5057718;28;20732;-87
2021/12/28 11:46:39;;;;;;;3.03;1.58;;;;;;;8.75;92.67;97492.34;5059291;28;20517;-87
2021/12/28 11:49:08;;;;;;;2.00;0.60;;;;;;;8.72;92.50;97484.81;5059888;28;20024;-87
2021/12/28 11:51:34;;;;;;;1.48;0.40;;;;;;;8.90;92.40;97482.22;5060367;28;20282;-87
2021/12/28 11:54:06;;;;;;;1.42;0.35;;;;;;;8.89;92.07;97453.41;5060490;28;20114;-87
2021/12/28 11:56:36;;;;;;;2.08;0.57;;;;;;;8.80;92.66;97456.09;5057736;28;20035;-88
2021/12/28 11:59:20;;;;;;;1.67;0.75;;;;;;;8.70;93.28;97456.34;5059739;28;20051;-87
2021/12/28 12:01:53;;;;;;;1.50;0.60;;;;;;;8.76;93.02;97449.69;5058985;28;20094;-88